Omaha, NE (68101)

12:59 AM CDT on April 27, 2017 (GMT -0500)
Midtown Crossing area | | Change Station
Active Advisory: Frost Advisory

Elev 1161 ft 41.26 °N, 95.96 °W | Updated 11 seconds ago

Overcast
Overcast
39.6 °F
Feels Like 40 °F
N
0.9
Wind Variable Wind from NE
Gusts 2.5 mph

Today
High -- | Low -- °F
--% Chance of Precip.
Yesterday
High -- | Low -- °F
Precip. -- in
Pressure 29.70 in
Visibility 10.0 miles
Clouds Overcast 3500 ft
Windchill 40 °F
Dew Point 25 °F
Humidity 56%
Rainfall 0.00 in
Snow Depth Not available.
6:26 AM 8:17 PM
New Moon, 1% visible
METAR KOMA 270552Z 31011KT 10SM OVC035 04/M01 A2969 RMK AO2 SLP056 T00441006 10061 20044 400720028 56003
Pressure 29.70 in
Visibility 10.0 miles
Clouds Overcast 3500 ft
Windchill 40 °F
Dew Point 25 °F
Humidity 56%
Rainfall 0.00 in
Snow Depth Not available.
6:26 AM 8:17 PM
New Moon, 1% visible
METAR KOMA 270552Z 31011KT 10SM OVC035 04/M01 A2969 RMK AO2 SLP056 T00441006 10061 20044 400720028 56003

Get Your Daily Forecast Email!

Thanks for signing up!

Be on the lookout for a verification email in your inbox.

You'll start receiving severe weather alerts in your inbox..

×

10-Day Weather Forecast

Almanac

Astronomy

Apr. 27, 2017 Rise Set
Actual Time
Civil Twilight
Nautical Twilight
Astronomical Twilight
Moon
Length of Visible Light
Length of Day
Tomorrow will be .
, % of the Moon is Illuminated

Today's Extremes

State Highs State Lows

Community

WunderPhotos

WunderBlog® & News

Nearby

Air Quality

  Air Quality AQ Index Pollutant
Not available.

Snow Depth

Station Depth Elevation

Earthquake Activity

City Distance Mag. Time & Date
Minimum magnitude displayed is 2.5.

Coastal Water Temperatures

Place Temperature

Stations

Nearby Weather Stations

Station Location Temp. Windchill Dew Point Humidity Wind Precip. Elev Updated Type
                   

Watches & Warnings

Frost Advisory
Issued: 10:35 PM CDT Apr. 26, 2017 – National Weather Service

... Frost advisory remains in effect until 9 am CDT Thursday...

* temperatures... overnight lows are forecast between 32 and 36
degrees in most areas, with the the highest chance for
temperatures near to below freezing along and north of
Interstate 80.

* Impacts... sensitive outdoor vegetation may be damaged or
killed if left unprotected.

* Uncertainty... winds may be just breezy enough across western
Iowa and extreme southeast Nebraska to prevent anything more
than patchy frost.

Precautionary/preparedness actions...

A frost advisory means that widespread frost is expected.
Sensitive outdoor plants may be killed if left uncovered.